createdAt,value
2024-04-25T00:00:58.483Z,6.35
2024-04-25T00:03:25.409Z,6.47
2024-04-25T00:05:57.627Z,7.65
2024-04-25T00:08:24.490Z,7.40
2024-04-25T00:10:53.363Z,7.80
2024-04-25T00:13:27.961Z,6.97
2024-04-25T00:15:56.621Z,6.78
2024-04-25T00:18:23.867Z,5.75
2024-04-25T00:20:52.357Z,6.55
2024-04-25T00:23:19.298Z,5.82
2024-04-25T00:25:46.983Z,6.53
2024-04-25T00:28:15.487Z,5.85
2024-04-25T00:30:42.636Z,6.28
2024-04-25T00:33:09.852Z,5.85
2024-04-25T00:35:37.053Z,5.32
2024-04-25T00:38:19.456Z,6.00
2024-04-25T00:40:59.640Z,5.82
2024-04-25T00:43:31.601Z,6.00
2024-04-25T00:45:59.574Z,5.13
2024-04-25T00:48:28.558Z,5.55
2024-04-25T00:50:56.714Z,6.75
2024-04-25T00:53:24.937Z,6.93
2024-04-25T00:55:53.672Z,6.93
2024-04-25T00:58:23.604Z,5.63
2024-04-25T01:00:55.039Z,5.85
2024-04-25T01:03:22.826Z,4.63
2024-04-25T01:05:52.484Z,5.38
2024-04-25T01:08:19.395Z,6.57
2024-04-25T01:10:46.390Z,6.20
2024-04-25T01:13:13.419Z,6.45
2024-04-25T01:15:40.566Z,5.97
2024-04-25T01:18:07.517Z,6.13
2024-04-25T01:20:36.423Z,5.60
2024-04-25T01:23:09.961Z,5.95
2024-04-25T01:25:37.993Z,5.03
2024-04-25T01:28:06.584Z,5.35
2024-04-25T01:30:35.403Z,5.38
2024-04-25T01:33:04.667Z,6.00
2024-04-25T01:35:33.040Z,7.05
2024-04-25T01:38:00.760Z,6.05
2024-04-25T01:40:27.959Z,6.57
2024-04-25T01:42:54.894Z,5.63
2024-04-25T01:45:21.766Z,6.00
2024-04-25T01:47:50.192Z,6.03
2024-04-25T01:50:17.258Z,5.53
2024-04-25T01:52:44.228Z,5.53
2024-04-25T01:55:11.048Z,7.43
2024-04-25T01:57:39.086Z,5.07
2024-04-25T02:00:06.458Z,6.63
2024-04-25T02:02:36.726Z,7.60
2024-04-25T02:05:03.683Z,5.65
2024-04-25T02:07:34.070Z,4.75
2024-04-25T02:10:01.625Z,5.63
2024-04-25T02:12:28.577Z,5.05
2024-04-25T02:14:55.455Z,6.57
2024-04-25T02:17:22.672Z,4.70
2024-04-25T02:19:49.660Z,5.20
2024-04-25T02:22:35.759Z,5.43
2024-04-25T02:25:21.375Z,5.82
2024-04-25T02:27:48.351Z,4.68
2024-04-25T02:30:15.267Z,4.43
2024-04-25T02:32:43.853Z,4.07
2024-04-25T02:35:10.981Z,5.13
2024-04-25T02:37:37.958Z,4.07
2024-04-25T02:40:17.162Z,5.40
2024-04-25T02:42:44.696Z,4.55
2024-04-25T02:45:11.656Z,4.85
2024-04-25T02:47:38.939Z,5.78
2024-04-25T02:50:08.798Z,4.75
2024-04-25T02:52:35.654Z,4.82
2024-04-25T02:55:02.603Z,4.90
2024-04-25T02:57:29.500Z,4.82
2024-04-25T02:59:56.308Z,4.38
2024-04-25T03:02:23.245Z,4.80
2024-04-25T03:04:50.324Z,4.90
2024-04-25T03:07:17.240Z,5.72
2024-04-25T03:09:44.021Z,4.53
2024-04-25T03:12:10.913Z,4.72
2024-04-25T03:14:37.888Z,5.72
2024-04-25T03:17:04.713Z,5.40
2024-04-25T03:19:31.634Z,5.75
2024-04-25T03:21:58.445Z,4.85
2024-04-25T03:24:25.585Z,5.38
2024-04-25T03:26:52.417Z,4.30
2024-04-25T03:29:19.372Z,4.95
2024-04-25T03:31:46.702Z,6.35
2024-04-25T03:34:13.615Z,11.35
2024-04-25T03:36:40.430Z,5.75
2024-04-25T03:39:07.231Z,9.23
2024-04-25T03:41:34.186Z,5.32
2024-04-25T03:44:01.081Z,4.53
2024-04-25T03:46:28.846Z,5.00
2024-04-25T03:48:55.753Z,4.57
2024-04-25T03:51:22.676Z,5.60
2024-04-25T03:54:06.047Z,7.13
2024-04-25T03:56:32.963Z,5.95
2024-04-25T03:58:59.884Z,7.32
2024-04-25T04:01:26.793Z,4.45
2024-04-25T04:03:53.760Z,5.88
2024-04-25T04:06:44.530Z,4.20
2024-04-25T04:09:16.947Z,4.70
2024-04-25T04:11:55.978Z,4.38
2024-04-25T04:14:22.913Z,4.38
2024-04-25T04:16:51.021Z,5.05
2024-04-25T04:19:19.018Z,5.22
2024-04-25T04:21:45.911Z,7.20
2024-04-25T04:24:15.639Z,5.03
2024-04-25T04:26:42.531Z,5.10
2024-04-25T04:29:09.460Z,7.00
2024-04-25T04:31:36.718Z,4.57
2024-04-25T04:34:03.638Z,4.75
2024-04-25T04:36:35.249Z,5.50
2024-04-25T04:39:03.675Z,4.65
2024-04-25T04:41:30.742Z,6.07
2024-04-25T04:43:59.630Z,6.13
2024-04-25T04:46:26.490Z,4.90
2024-04-25T04:48:53.560Z,4.18
2024-04-25T04:51:20.575Z,4.78
2024-04-25T04:53:48.378Z,4.20
2024-04-25T04:56:15.231Z,4.28
2024-04-25T04:58:42.521Z,4.15
2024-04-25T05:01:10.223Z,4.75
2024-04-25T05:03:37.617Z,4.55
2024-04-25T05:06:06.608Z,4.70
2024-04-25T05:08:38.184Z,5.45
2024-04-25T05:11:05.686Z,5.63
2024-04-25T05:13:32.453Z,5.35
2024-04-25T05:15:59.414Z,4.78
2024-04-25T05:18:26.530Z,5.80
2024-04-25T05:20:53.394Z,5.82
2024-04-25T05:23:20.311Z,4.88
2024-04-25T05:25:48.392Z,5.32
2024-04-25T05:28:15.208Z,5.40
2024-04-25T05:30:42.156Z,4.75
2024-04-25T05:33:09.776Z,5.65
2024-04-25T05:35:36.886Z,6.35
2024-04-25T05:38:04.020Z,6.35
2024-04-25T05:40:31.062Z,5.22
2024-04-25T05:42:57.902Z,5.60
2024-04-25T05:45:24.810Z,6.00
2024-04-25T05:47:51.890Z,6.13
2024-04-25T05:50:18.949Z,5.78
2024-04-25T05:52:45.878Z,7.15
2024-04-25T05:55:12.943Z,5.38
2024-04-25T05:57:39.850Z,5.65
2024-04-25T06:00:07.682Z,8.10
2024-04-25T06:02:34.641Z,6.20
2024-04-25T06:05:01.612Z,6.32
2024-04-25T06:07:28.533Z,8.30
2024-04-25T06:09:55.445Z,7.75
2024-04-25T06:12:22.444Z,7.82
2024-04-25T06:14:49.394Z,8.07
2024-04-25T06:17:16.486Z,5.97
2024-04-25T06:19:47.096Z,5.35
2024-04-25T06:22:14.785Z,6.03
2024-04-25T06:24:41.632Z,5.15
2024-04-25T06:27:09.056Z,4.40
2024-04-25T06:29:36.010Z,4.55
2024-04-25T06:32:02.981Z,4.88
2024-04-25T06:34:31.790Z,4.07
2024-04-25T06:36:58.698Z,5.60
2024-04-25T06:39:25.646Z,5.40
2024-04-25T06:41:57.027Z,4.32
2024-04-25T06:44:30.005Z,3.33
2024-04-25T06:47:02.916Z,3.45
2024-04-25T06:49:29.878Z,3.78
2024-04-25T06:51:56.686Z,4.00
2024-04-25T06:54:25.673Z,4.78
2024-04-25T06:56:54.293Z,4.18
2024-04-25T06:59:21.360Z,4.60
2024-04-25T07:01:50.826Z,3.83
2024-04-25T07:04:18.233Z,4.80
2024-04-25T07:06:45.180Z,5.60
2024-04-25T07:09:12.124Z,4.20
2024-04-25T07:11:39.218Z,4.07
2024-04-25T07:14:06.091Z,6.20
2024-04-25T07:16:33.094Z,4.75
2024-04-25T07:19:00.482Z,4.65
2024-04-25T07:21:28.585Z,4.85
2024-04-25T07:28:02.739Z,3.47
2024-04-25T07:30:29.832Z,3.60
2024-04-25T07:32:57.245Z,4.55
2024-04-25T07:39:06.340Z,5.45
2024-04-25T07:45:21.131Z,4.30
2024-04-25T07:47:48.181Z,5.05
2024-04-25T07:50:15.191Z,4.40
2024-04-25T07:52:42.188Z,4.75
2024-04-25T07:55:09.054Z,5.43
2024-04-25T07:57:35.931Z,4.82
2024-04-25T08:00:02.786Z,5.57
2024-04-25T08:02:39.044Z,5.50
2024-04-25T08:05:09.208Z,4.95
2024-04-25T08:07:39.474Z,4.85
2024-04-25T08:10:07.825Z,5.07
2024-04-25T08:12:35.136Z,4.93
2024-04-25T08:15:02.381Z,5.85
2024-04-25T08:17:29.380Z,5.63
2024-04-25T08:19:56.284Z,4.55
2024-04-25T08:22:25.984Z,5.25
2024-04-25T08:24:53.173Z,4.63
2024-04-25T08:27:20.553Z,5.40
2024-04-25T08:29:47.577Z,5.55
2024-04-25T08:32:14.575Z,6.15
2024-04-25T08:34:41.440Z,5.32
2024-04-25T08:37:08.248Z,5.07
2024-04-25T08:39:35.175Z,6.63
2024-04-25T08:42:07.128Z,4.15
2024-04-25T08:44:34.239Z,7.47
2024-04-25T08:47:02.399Z,4.28
2024-04-25T08:49:34.016Z,5.43
2024-04-25T08:52:03.889Z,6.07
2024-04-25T08:54:32.183Z,4.00
2024-04-25T08:56:59.134Z,4.63
2024-04-25T08:59:26.491Z,4.75
2024-04-25T09:01:55.088Z,3.65
2024-04-25T09:04:27.782Z,3.85
2024-04-25T09:06:54.911Z,4.90
2024-04-25T09:09:21.897Z,3.58
2024-04-25T09:11:55.719Z,5.35
2024-04-25T09:14:22.788Z,7.13
2024-04-25T09:16:49.676Z,4.70
2024-04-25T09:19:16.553Z,3.75
2024-04-25T09:21:44.711Z,4.68
2024-04-25T09:24:12.295Z,4.28
2024-04-25T09:26:39.284Z,3.88
2024-04-25T09:29:08.090Z,3.70
2024-04-25T09:31:38.352Z,3.08
2024-04-25T09:34:05.712Z,2.80
2024-04-25T09:36:32.605Z,3.85
2024-04-25T09:38:59.541Z,2.90
2024-04-25T09:41:28.760Z,3.50
2024-04-25T09:43:55.840Z,5.20
2024-04-25T09:46:48.918Z,3.53
2024-04-25T09:49:21.953Z,3.58
2024-04-25T09:51:56.940Z,3.42
2024-04-25T09:54:27.545Z,4.95
2024-04-25T09:59:44.151Z,3.15
2024-04-25T10:02:18.342Z,2.20
2024-04-25T10:04:45.640Z,2.78
2024-04-25T10:07:15.409Z,2.25
2024-04-25T10:09:44.130Z,3.07
2024-04-25T10:12:11.254Z,3.97
2024-04-25T10:14:38.322Z,3.38
2024-04-25T10:17:06.150Z,3.40
2024-04-25T10:19:36.962Z,2.40
2024-04-25T10:22:03.743Z,3.60
2024-04-25T10:24:30.726Z,4.50
2024-04-25T10:26:57.910Z,3.38
2024-04-25T10:29:32.528Z,2.55
2024-04-25T10:31:59.724Z,3.72
2024-04-25T10:34:28.973Z,3.20
2024-04-25T10:36:55.809Z,4.18
2024-04-25T10:39:22.848Z,2.42
2024-04-25T10:41:49.876Z,2.40
2024-04-25T10:44:16.811Z,2.05
2024-04-25T10:46:43.769Z,2.20
2024-04-25T10:49:11.037Z,2.22
2024-04-25T10:51:39.942Z,3.92
2024-04-25T10:54:07.199Z,3.50
2024-04-25T10:56:34.167Z,4.38
2024-04-25T10:59:01.047Z,2.72
2024-04-25T11:01:29.909Z,2.88
2024-04-25T11:03:57.567Z,3.10
2024-04-25T11:06:28.935Z,3.70
2024-04-25T11:08:56.045Z,2.45
2024-04-25T11:11:23.339Z,3.45
2024-04-25T11:13:50.799Z,3.50
2024-04-25T11:16:18.275Z,2.97
2024-04-25T11:18:48.385Z,4.05
2024-04-25T11:21:18.633Z,2.60
2024-04-25T11:23:45.735Z,3.83
2024-04-25T11:26:12.731Z,2.90
2024-04-25T11:28:41.300Z,3.08
2024-04-25T11:31:09.449Z,2.50
2024-04-25T11:33:39.132Z,2.58
2024-04-25T11:36:06.732Z,3.20
2024-04-25T11:38:33.664Z,3.85
2024-04-25T11:41:00.824Z,4.00
2024-04-25T11:43:27.603Z,3.15
2024-04-25T11:45:54.547Z,2.92
2024-04-25T11:48:22.943Z,4.72
2024-04-25T11:50:50.233Z,3.85
2024-04-25T11:53:17.261Z,2.95
2024-04-25T11:55:44.492Z,3.03
2024-04-25T11:58:11.611Z,2.05
2024-04-25T12:00:38.953Z,3.17
2024-04-25T12:03:06.612Z,2.50
2024-04-25T12:05:33.673Z,2.53
2024-04-25T12:08:05.075Z,1.63
2024-04-25T12:10:32.355Z,2.38
2024-04-25T12:12:59.494Z,1.42
2024-04-25T12:15:26.454Z,2.05
2024-04-25T12:17:53.720Z,1.58
2024-04-25T12:20:20.793Z,1.23
2024-04-25T12:22:47.640Z,2.67
2024-04-25T12:25:14.441Z,2.22
2024-04-25T12:27:41.391Z,1.67
2024-04-25T12:30:08.757Z,1.90
2024-04-25T12:32:35.805Z,2.67
2024-04-25T12:35:02.820Z,1.77
2024-04-25T12:37:29.726Z,1.70
2024-04-25T12:39:56.544Z,2.20
2024-04-25T12:42:25.537Z,1.92
2024-04-25T12:44:52.835Z,1.40
2024-04-25T12:47:19.849Z,2.53
2024-04-25T12:49:46.848Z,2.00
2024-04-25T12:52:13.769Z,1.70
2024-04-25T12:54:40.645Z,1.65
2024-04-25T12:57:07.554Z,2.40
2024-04-25T12:59:34.859Z,3.05
2024-04-25T13:02:01.944Z,1.60
2024-04-25T13:04:28.889Z,1.52
2024-04-25T13:06:56.690Z,1.73
2024-04-25T13:09:25.240Z,1.08
2024-04-25T13:11:53.324Z,2.00
2024-04-25T13:14:20.211Z,1.40
2024-04-25T13:16:47.194Z,1.52
2024-04-25T13:19:14.220Z,1.65
2024-04-25T13:21:42.880Z,1.60
2024-04-25T13:24:09.676Z,1.55
2024-04-25T13:26:36.610Z,1.35
2024-04-25T13:29:03.685Z,1.00
2024-04-25T13:31:30.640Z,3.10
2024-04-25T13:33:57.738Z,1.20
2024-04-25T13:36:25.376Z,2.17
2024-04-25T13:38:53.181Z,1.00
2024-04-25T13:41:20.225Z,1.40
2024-04-25T13:43:47.137Z,1.77
2024-04-25T13:46:14.082Z,2.78
2024-04-25T13:48:41.099Z,2.28
2024-04-25T13:51:07.993Z,1.80
2024-04-25T13:53:35.160Z,1.85
2024-04-25T13:56:01.953Z,2.67
2024-04-25T13:58:28.867Z,1.98
2024-04-25T14:00:55.682Z,1.58
2024-04-25T14:03:22.620Z,4.13
2024-04-25T14:05:51.937Z,2.35
2024-04-25T14:08:19.059Z,2.45
2024-04-25T14:10:45.984Z,2.38
2024-04-25T14:13:12.799Z,2.08
2024-04-25T14:15:39.785Z,2.55
2024-04-25T14:18:06.794Z,1.08
2024-04-25T14:20:33.768Z,2.13
2024-04-25T14:23:00.753Z,1.58
2024-04-25T14:25:46.474Z,2.00
2024-04-25T14:28:31.851Z,1.23
2024-04-25T14:30:58.645Z,2.15
2024-04-25T14:33:25.634Z,1.33
2024-04-25T14:35:53.575Z,1.17
2024-04-25T14:38:20.926Z,1.38
2024-04-25T14:40:49.126Z,1.50
2024-04-25T14:43:17.742Z,1.25
2024-04-25T14:45:45.410Z,1.25
2024-04-25T14:48:12.509Z,1.60
2024-04-25T14:50:42.365Z,1.92
2024-04-25T14:53:09.269Z,1.17
2024-04-25T14:55:36.136Z,1.35
2024-04-25T14:58:03.012Z,1.75
2024-04-25T15:00:29.811Z,1.30
2024-04-25T15:02:56.746Z,2.17
2024-04-25T15:05:23.667Z,3.90
2024-04-25T15:07:50.604Z,1.83
2024-04-25T15:10:19.122Z,1.35
2024-04-25T15:12:46.365Z,1.55
2024-04-25T15:15:18.610Z,1.35
2024-04-25T15:17:52.029Z,2.05
2024-04-25T15:20:19.791Z,1.85
2024-04-25T15:22:47.020Z,1.10
2024-04-25T15:25:14.347Z,1.75
2024-04-25T15:27:41.311Z,1.98
2024-04-25T15:30:08.768Z,1.33
2024-04-25T15:32:35.801Z,1.38
2024-04-25T15:35:04.014Z,1.67
2024-04-25T15:37:33.742Z,1.95
2024-04-25T15:40:00.561Z,2.15
2024-04-25T15:42:27.341Z,1.83
2024-04-25T15:44:54.372Z,2.15
2024-04-25T15:47:21.689Z,2.13
2024-04-25T15:49:48.575Z,4.70
2024-04-25T15:52:15.600Z,2.55
2024-04-25T15:54:49.779Z,3.50
2024-04-25T15:57:16.804Z,1.48
2024-04-25T15:59:43.830Z,2.03
2024-04-25T16:02:10.727Z,1.70
2024-04-25T16:04:37.735Z,1.75
2024-04-25T16:07:29.624Z,2.17
2024-04-25T16:09:56.555Z,2.28
2024-04-25T16:12:23.604Z,1.00
2024-04-25T16:14:51.355Z,1.63
2024-04-25T16:17:18.312Z,0.70
2024-04-25T16:19:45.296Z,0.40
2024-04-25T16:22:12.087Z,0.93
2024-04-25T16:24:39.021Z,1.00
2024-04-25T16:27:07.613Z,1.80
2024-04-25T16:29:34.770Z,1.73
2024-04-25T16:32:01.646Z,1.33
2024-04-25T16:34:28.606Z,2.08
2024-04-25T16:36:55.609Z,0.80
2024-04-25T16:39:22.373Z,1.25
2024-04-25T16:41:49.185Z,1.50
2024-04-25T16:44:16.076Z,0.80
2024-04-25T16:46:43.000Z,0.30
2024-04-25T16:49:09.886Z,1.42
2024-04-25T16:51:36.608Z,3.03
2024-04-25T16:54:03.474Z,1.67
2024-04-25T16:56:34.784Z,1.40
2024-04-25T16:59:02.005Z,1.60
2024-04-25T17:01:28.877Z,1.33
2024-04-25T17:03:55.738Z,1.92
2024-04-25T17:06:22.625Z,1.98
2024-04-25T17:08:49.738Z,1.95
2024-04-25T17:11:18.310Z,1.40
2024-04-25T17:13:45.293Z,1.60
2024-04-25T17:16:12.115Z,2.55
2024-04-25T17:18:38.993Z,2.35
2024-04-25T17:21:10.441Z,1.67
2024-04-25T17:23:39.299Z,1.70
2024-04-25T17:26:09.634Z,2.75
2024-04-25T17:28:36.455Z,2.20
2024-04-25T17:31:03.245Z,1.45
2024-04-25T17:33:30.267Z,1.55
2024-04-25T17:35:57.232Z,2.38
2024-04-25T17:38:24.084Z,0.90
2024-04-25T17:40:51.189Z,0.75
2024-04-25T17:43:18.026Z,3.25
2024-04-25T17:45:44.904Z,0.93
2024-04-25T17:48:11.809Z,8.30
2024-04-25T17:50:38.746Z,3.58
2024-04-25T17:53:06.427Z,1.63
2024-04-25T17:55:33.253Z,3.80
2024-04-25T17:58:00.066Z,2.92
2024-04-25T18:00:26.945Z,3.38
2024-04-25T18:02:57.032Z,2.08
2024-04-25T18:05:24.094Z,2.25
2024-04-25T18:07:51.010Z,3.15
2024-04-25T18:10:17.868Z,2.72
2024-04-25T18:12:44.925Z,5.00
2024-04-25T18:15:11.684Z,4.68
2024-04-25T18:17:40.193Z,4.75
2024-04-25T18:20:07.547Z,4.13
2024-04-25T18:22:34.947Z,4.90
2024-04-25T18:25:01.811Z,4.82
2024-04-25T18:27:28.695Z,5.68
2024-04-25T18:29:55.445Z,5.93
2024-04-25T18:32:22.373Z,10.35
2024-04-25T18:34:49.165Z,13.43
2024-04-25T18:37:16.523Z,8.98
2024-04-25T18:39:44.047Z,8.90
2024-04-25T18:42:11.387Z,8.77
2024-04-25T18:44:39.070Z,4.28
2024-04-25T18:47:06.482Z,3.38
2024-04-25T18:49:34.253Z,2.47
2024-04-25T18:52:01.854Z,2.55
2024-04-25T18:54:29.265Z,2.78
2024-04-25T18:56:56.770Z,3.33
2024-04-25T18:59:24.463Z,2.03
2024-04-25T19:01:51.947Z,1.83
2024-04-25T19:04:21.874Z,2.53
2024-04-25T19:06:52.379Z,1.67
2024-04-25T19:09:22.805Z,1.20
2024-04-25T19:11:49.999Z,2.00
2024-04-25T19:14:17.667Z,2.42
2024-04-25T19:16:44.769Z,1.90
2024-04-25T19:19:13.497Z,1.98
2024-04-25T19:21:43.635Z,2.90
2024-04-25T19:24:11.012Z,1.73
2024-04-25T19:26:38.278Z,2.17
2024-04-25T19:29:05.392Z,1.45
2024-04-25T19:31:46.164Z,1.75
2024-04-25T19:36:50.117Z,1.40
2024-04-25T19:39:16.966Z,2.35
2024-04-25T19:41:45.163Z,1.70
2024-04-25T19:44:12.274Z,1.70
2024-04-25T19:46:39.347Z,1.33
2024-04-25T19:49:06.205Z,2.10
2024-04-25T19:51:33.352Z,2.97
2024-04-25T19:54:00.228Z,1.77
2024-04-25T19:56:27.019Z,3.17
2024-04-25T19:58:53.883Z,2.47
2024-04-25T20:01:20.753Z,2.30
2024-04-25T20:03:47.659Z,3.25
2024-04-25T20:06:16.902Z,1.90
2024-04-25T20:08:44.201Z,2.20
2024-04-25T20:11:11.159Z,2.13
2024-04-25T20:13:41.839Z,2.42
2024-04-25T20:18:59.840Z,2.00
2024-04-25T20:21:26.698Z,2.75
2024-04-25T20:23:53.744Z,2.15
2024-04-25T20:26:20.709Z,2.53
2024-04-25T20:28:48.111Z,3.88
2024-04-25T20:31:16.389Z,3.33
2024-04-25T20:33:43.194Z,2.92
2024-04-25T20:36:10.486Z,2.28
2024-04-25T20:38:37.647Z,4.10
2024-04-25T20:41:05.384Z,3.70
2024-04-25T20:43:32.291Z,1.85
2024-04-25T20:45:59.148Z,2.53
2024-04-25T20:48:26.119Z,2.90
2024-04-25T20:50:54.555Z,1.15
2024-04-25T20:53:21.493Z,2.03
2024-04-25T20:55:48.378Z,2.25
2024-04-25T20:58:15.348Z,3.17
2024-04-25T21:00:44.986Z,2.08
2024-04-25T21:03:12.305Z,3.70
2024-04-25T21:05:39.935Z,3.35
2024-04-25T21:08:07.440Z,2.38
2024-04-25T21:10:34.340Z,3.20
2024-04-25T21:13:01.298Z,1.85
2024-04-25T21:15:28.199Z,1.77
2024-04-25T21:17:55.088Z,2.33
2024-04-25T21:20:22.254Z,2.72
2024-04-25T21:22:49.102Z,3.42
2024-04-25T21:25:18.275Z,2.08
2024-04-25T21:27:45.101Z,1.95
2024-04-25T21:30:11.984Z,2.10
2024-04-25T21:32:44.718Z,1.95
2024-04-25T21:35:12.354Z,1.90
2024-04-25T21:37:39.228Z,2.08
2024-04-25T21:40:06.499Z,2.08
2024-04-25T21:42:33.374Z,1.70
2024-04-25T21:45:01.160Z,1.70
2024-04-25T21:47:28.237Z,1.67
2024-04-25T21:49:55.126Z,1.40
2024-04-25T21:52:22.035Z,2.95
2024-04-25T21:54:48.817Z,4.03
2024-04-25T21:57:18.764Z,3.13
2024-04-25T21:59:46.343Z,2.80
2024-04-25T22:02:13.418Z,5.35
2024-04-25T22:04:40.276Z,2.25
2024-04-25T22:07:07.103Z,2.33
2024-04-25T22:09:34.116Z,2.40
2024-04-25T22:12:01.083Z,6.30
2024-04-25T22:14:28.164Z,3.45
2024-04-25T22:16:55.464Z,2.33
2024-04-25T22:19:23.525Z,2.50
2024-04-25T22:21:50.816Z,2.05
2024-04-25T22:24:20.540Z,2.90
2024-04-25T22:26:48.242Z,1.60
2024-04-25T22:29:15.419Z,2.85
2024-04-25T22:31:42.217Z,3.15
2024-04-25T22:34:09.074Z,5.00
2024-04-25T22:36:35.847Z,3.53
2024-04-25T22:39:02.916Z,3.08
2024-04-25T22:41:29.781Z,5.03
2024-04-25T22:43:56.592Z,3.10
2024-04-25T22:46:23.379Z,3.42
2024-04-25T22:48:50.401Z,1.77
2024-04-25T22:51:17.501Z,1.92
2024-04-25T22:53:44.360Z,2.97
2024-04-25T22:56:11.252Z,2.47
2024-04-25T22:58:38.153Z,1.83
2024-04-25T23:01:05.198Z,3.25
2024-04-25T23:03:32.344Z,2.20
2024-04-25T23:05:59.416Z,1.90
2024-04-25T23:08:26.482Z,2.15
2024-04-25T23:10:53.508Z,3.85
2024-04-25T23:13:20.427Z,2.00
2024-04-25T23:15:47.258Z,1.70
2024-04-25T23:18:14.321Z,4.32
2024-04-25T23:20:41.228Z,3.13
2024-04-25T23:23:08.096Z,2.88
2024-04-25T23:25:34.929Z,2.22
2024-04-25T23:28:01.829Z,2.45
2024-04-25T23:30:28.756Z,3.10
2024-04-25T23:32:55.694Z,2.90
2024-04-25T23:35:22.715Z,5.78
2024-04-25T23:37:49.664Z,2.63
2024-04-25T23:40:19.235Z,3.70
2024-04-25T23:42:46.186Z,2.22
2024-04-25T23:45:12.997Z,3.17
2024-04-25T23:47:39.916Z,2.05
2024-04-25T23:50:07.260Z,2.58
2024-04-25T23:52:34.186Z,2.60
2024-04-25T23:55:00.950Z,2.13
2024-04-25T23:57:27.818Z,2.60
2024-04-25T23:59:54.804Z,2.38
